Time;durP1;ratioP1;P1;durP2;ratioP2;P2;SDS_P1;SDS_P2;PMS_P1;PMS_P2;Temp;Humidity;BMP_temperature;BMP_pressure;BME280_temperature;BME280_humidity;BME280_pressure;Samples;Min_cycle;Max_cycle;Signal;HPM_P1;HPM_P2
2022/06/11 00:01:43;;;;;;;9.28;8.28;;;;;;;15.76;73.41;100768.73;1737082;82;25675;-67
2022/06/11 00:04:24;;;;;;;8.88;7.80;;;;;;;15.73;73.75;100770.14;1737354;82;28109;-65
2022/06/11 00:06:53;;;;;;;10.05;7.37;;;;;;;15.74;73.69;100775.84;1737233;82;25692;-67
2022/06/11 00:09:22;;;;;;;8.95;7.78;;;;;;;15.72;73.72;100772.66;1709876;82;25654;-65
2022/06/11 00:11:51;;;;;;;8.98;8.05;;;;;;;15.73;73.84;100774.81;1737522;82;25778;-66
2022/06/11 00:14:21;;;;;;;8.35;7.17;;;;;;;15.71;73.96;100772.41;1737421;82;25698;-66
2022/06/11 00:16:47;;;;;;;8.68;7.62;;;;;;;15.68;73.87;100767.61;1737148;81;27395;-66
2022/06/11 00:19:15;;;;;;;8.13;7.33;;;;;;;15.65;73.70;100773.76;1737251;82;25723;-65
2022/06/11 00:21:43;;;;;;;8.98;7.55;;;;;;;15.63;73.57;100773.27;1737251;81;25682;-65
2022/06/11 00:24:11;;;;;;;8.80;7.30;;;;;;;15.61;73.56;100775.53;1737113;82;25690;-65
2022/06/11 00:26:42;;;;;;;12.37;7.78;;;;;;;15.57;73.60;100782.21;1737194;82;25651;-65
2022/06/11 00:29:11;;;;;;;7.60;6.90;;;;;;;15.55;73.65;100787.78;1737378;82;28114;-66
2022/06/11 00:31:37;;;;;;;9.38;8.13;;;;;;;15.52;73.55;100791.95;1737127;82;25984;-65
2022/06/11 00:34:04;;;;;;;8.30;7.47;;;;;;;15.48;73.68;100795.91;1737281;82;25683;-65
2022/06/11 00:36:31;;;;;;;10.95;7.12;;;;;;;15.46;73.64;100801.44;1736864;82;25772;-65
2022/06/11 00:38:58;;;;;;;8.33;7.53;;;;;;;15.42;73.41;100801.30;1737440;82;25399;-66
2022/06/11 00:41:28;;;;;;;10.08;7.37;;;;;;;15.37;73.68;100797.97;1737252;81;27373;-66
2022/06/11 00:43:54;;;;;;;8.45;7.42;;;;;;;15.31;73.64;100796.00;1737458;82;25395;-67
2022/06/11 00:46:46;;;;;;;7.87;7.17;;;;;;;15.24;73.81;100795.16;1737553;82;25632;-67
2022/06/11 00:49:39;;;;;;;9.40;7.72;;;;;;;15.18;73.76;100791.58;1737502;82;25607;-68
2022/06/11 00:52:29;;;;;;;7.97;7.25;;;;;;;15.13;74.04;100801.52;1737002;82;25403;-67
2022/06/11 00:55:18;;;;;;;9.45;7.62;;;;;;;15.08;74.11;100809.87;1736320;82;27359;-67
2022/06/11 00:57:48;;;;;;;;;;;;;;;15.05;74.34;100807.83;1737202;82;25690;-67
2022/06/11 01:00:20;;;;;;;8.15;7.37;;;;;;;15.02;74.85;100808.47;1734702;82;25626;-68
2022/06/11 01:02:47;;;;;;;8.48;7.72;;;;;;;14.99;74.83;100811.84;1734414;82;25685;-68
2022/06/11 01:05:18;;;;;;;8.28;7.45;;;;;;;14.98;74.93;100810.80;1734771;82;25406;-67
2022/06/11 01:08:07;;;;;;;10.48;7.78;;;;;;;14.96;74.98;100801.59;1733829;82;27457;-67
2022/06/11 01:11:10;;;;;;;10.00;8.07;;;;;;;14.96;75.17;100803.52;1734864;82;25567;-68
2022/06/11 01:13:54;;;;;;;9.25;7.80;;;;;;;14.94;75.29;100795.67;1728739;82;25614;-66
2022/06/11 01:16:37;;;;;;;9.48;8.50;;;;;;;14.90;75.40;100802.91;1728602;83;25685;-69
2022/06/11 01:19:26;;;;;;;9.38;8.30;;;;;;;14.90;75.60;100797.47;1728552;83;25681;-69
2022/06/11 01:22:10;;;;;;;8.83;7.83;;;;;;;14.88;75.97;100789.62;1728686;83;27332;-67
2022/06/11 01:25:09;;;;;;;11.90;8.15;;;;;;;14.85;76.10;100790.27;1715962;83;25913;-67
2022/06/11 01:27:41;;;;;;;10.68;8.58;;;;;;;14.83;76.08;100784.89;1728592;83;25658;-69
2022/06/11 01:30:32;;;;;;;9.30;7.92;;;;;;;14.83;76.19;100784.89;1728649;83;25649;-67
2022/06/11 01:33:10;;;;;;;11.05;8.18;;;;;;;14.81;76.25;100783.84;1728766;83;25608;-68
2022/06/11 01:36:06;;;;;;;8.78;7.92;;;;;;;14.80;76.64;100779.55;1728217;83;27255;-68
2022/06/11 01:38:59;;;;;;;9.25;8.13;;;;;;;14.79;76.63;100773.06;1691302;84;25742;-69
2022/06/11 01:41:40;;;;;;;7.55;6.85;;;;;;;14.76;76.58;100771.77;1691499;84;25676;-68
2022/06/11 01:44:11;;;;;;;10.03;7.75;;;;;;;14.74;76.60;100775.39;1699182;83;25799;-70
2022/06/11 01:46:43;;;;;;;9.05;8.03;;;;;;;14.71;76.60;100777.39;1706542;83;25490;-68
2022/06/11 01:49:27;;;;;;;8.93;7.15;;;;;;;14.70;76.66;100771.73;1688381;84;28008;-68
2022/06/11 01:52:22;;;;;;;8.50;7.37;;;;;;;14.68;76.71;100771.27;1663568;86;25536;-68
2022/06/11 01:54:57;;;;;;;9.00;7.25;;;;;;;14.65;76.56;100768.61;1664240;85;25550;-68
2022/06/11 01:58:05;;;;;;;8.48;7.42;;;;;;;14.62;76.50;100770.62;1666390;86;25997;-67
2022/06/11 02:00:45;;;;;;;7.92;6.45;;;;;;;14.59;76.57;100769.90;1584645;90;25541;-67
2022/06/11 02:03:28;;;;;;;10.68;7.53;;;;;;;14.57;76.68;100776.20;1584721;90;28279;-67
2022/06/11 02:06:06;;;;;;;7.70;6.90;;;;;;;14.52;76.64;100777.73;1584630;90;25723;-69
2022/06/11 02:08:41;;;;;;;7.87;7.08;;;;;;;14.48;76.75;100776.23;1584844;90;25487;-69
2022/06/11 02:11:16;;;;;;;7.05;6.37;;;;;;;14.44;76.53;100777.19;1587052;90;25635;-69
2022/06/11 02:13:53;;;;;;;7.37;6.62;;;;;;;14.40;76.77;100782.48;1635416;87;25454;-69
2022/06/11 02:16:25;;;;;;;7.12;6.25;;;;;;;14.37;76.67;100779.06;1599064;89;27415;-70
2022/06/11 02:18:54;;;;;;;7.50;6.62;;;;;;;14.32;76.58;100773.77;1599187;89;25532;-68
2022/06/11 02:21:28;;;;;;;9.00;6.78;;;;;;;14.28;76.42;100775.55;1647612;87;25641;-67
2022/06/11 02:24:02;;;;;;;7.17;5.90;;;;;;;14.23;76.47;100779.22;1646822;87;25785;-69
2022/06/11 02:26:34;;;;;;;7.17;6.47;;;;;;;14.19;76.50;100776.34;1646990;87;25470;-67
2022/06/11 02:29:03;;;;;;;7.72;6.97;;;;;;;14.16;76.39;100777.55;1647491;87;27572;-68
2022/06/11 02:31:34;;;;;;;8.78;6.65;;;;;;;14.13;76.29;100774.11;1647626;87;25674;-68
2022/06/11 02:34:04;;;;;;;9.45;6.50;;;;;;;14.10;76.48;100774.20;1647508;87;25481;-67
2022/06/11 02:36:35;;;;;;;9.80;6.72;;;;;;;14.07;76.45;100779.48;1647414;87;25675;-67
2022/06/11 02:39:05;;;;;;;7.83;6.53;;;;;;;14.05;76.44;100790.69;1624084;86;25560;-68
2022/06/11 02:41:33;;;;;;;8.38;6.60;;;;;;;14.02;76.29;100787.23;1650866;86;27352;-68
2022/06/11 02:44:00;;;;;;;7.17;6.42;;;;;;;13.99;76.43;100789.23;1674692;85;25697;-69
2022/06/11 02:46:41;;;;;;;8.20;6.33;;;;;;;13.96;76.48;100789.87;1674577;85;25513;-69
2022/06/11 02:49:21;;;;;;;7.65;6.75;;;;;;;13.91;76.52;100788.66;1719376;82;26329;-67
2022/06/11 02:51:51;;;;;;;7.12;6.42;;;;;;;13.88;76.74;100783.89;1677792;85;25778;-68
2022/06/11 02:54:19;;;;;;;7.12;6.40;;;;;;;13.86;76.62;100790.18;1677706;85;28103;-70
2022/06/11 02:56:49;;;;;;;6.42;5.85;;;;;;;13.84;76.56;100787.78;1674873;84;25443;-67
2022/06/11 02:59:16;;;;;;;8.48;6.55;;;;;;;13.81;76.58;100791.95;1674895;85;25590;-67
2022/06/11 03:01:44;;;;;;;7.40;6.25;;;;;;;13.79;76.73;100791.48;1674816;85;25715;-68
2022/06/11 03:04:11;;;;;;;9.95;6.10;;;;;;;13.77;76.82;100798.33;1674837;85;25626;-68
2022/06/11 03:06:41;;;;;;;9.23;6.95;;;;;;;13.76;76.94;100796.75;1674816;85;28140;-68
2022/06/11 03:09:11;;;;;;;7.20;6.53;;;;;;;13.77;77.17;100801.88;1674857;85;28257;-67
2022/06/11 03:11:38;;;;;;;8.38;6.50;;;;;;;13.76;77.29;100794.82;1674865;85;25684;-67
2022/06/11 03:14:05;;;;;;;7.30;6.35;;;;;;;13.77;77.46;100798.33;1674795;85;26329;-69
2022/06/11 03:16:31;;;;;;;11.75;6.60;;;;;;;13.77;77.68;100795.61;1674851;85;25451;-70
2022/06/11 03:18:57;;;;;;;9.35;6.33;;;;;;;13.79;77.89;100798.81;1674874;85;27998;-67
2022/06/11 03:21:25;;;;;;;9.53;7.05;;;;;;;13.79;78.01;100790.11;1674718;85;33047;-67
2022/06/11 03:23:51;;;;;;;10.78;6.40;;;;;;;13.82;78.07;100794.10;1674847;85;25507;-67
2022/06/11 03:26:17;;;;;;;8.65;6.67;;;;;;;13.83;78.17;100794.36;1674784;85;25686;-67
2022/06/11 03:28:44;;;;;;;7.78;6.22;;;;;;;13.86;78.16;100790.18;1675409;85;25537;-68
2022/06/11 03:31:10;;;;;;;9.95;6.35;;;;;;;13.86;78.26;100789.64;1674738;85;27532;-68
2022/06/11 03:33:39;;;;;;;6.53;5.83;;;;;;;13.87;78.31;100795.88;1706810;84;25425;-68
2022/06/11 03:36:10;;;;;;;8.50;6.67;;;;;;;13.89;78.34;100789.55;1706888;83;25420;-68
2022/06/11 03:38:39;;;;;;;7.03;6.28;;;;;;;13.91;78.59;100788.66;1706890;84;25684;-68
2022/06/11 03:41:07;;;;;;;7.22;6.03;;;;;;;13.94;78.66;100792.11;1707036;83;25430;-67
2022/06/11 03:43:34;;;;;;;8.88;6.70;;;;;;;13.96;78.72;100797.48;1706911;84;27415;-67
2022/06/11 03:46:00;;;;;;;7.92;6.70;;;;;;;13.98;78.77;100793.09;1706986;84;25430;-69
2022/06/11 03:48:32;;;;;;;12.60;10.50;;;;;;;14.02;78.86;100800.84;1707070;83;25589;-69
2022/06/11 03:50:57;;;;;;;;;;;;;;;14.06;79.11;100793.63;1708288;83;25645;-67
2022/06/11 03:53:24;;;;;;;9.23;7.45;;;;;;;14.10;79.47;100796.53;1734896;82;25610;-67
2022/06/11 03:55:51;;;;;;;7.37;6.15;;;;;;;14.14;79.46;100800.98;1733674;82;27323;-67
2022/06/11 03:58:19;;;;;;;7.17;6.20;;;;;;;14.20;79.64;100798.93;1732377;82;25509;-69
2022/06/11 04:03:32;;;;;;;6.28;5.67;;;;;;;14.31;79.77;100796.10;1732286;82;25666;-67
2022/06/11 04:05:59;;;;;;;7.05;5.80;;;;;;;14.39;79.85;100797.23;1732330;82;25537;-67
2022/06/11 04:08:26;;;;;;;6.62;5.95;;;;;;;14.45;79.79;100795.92;1732304;82;27085;-69
2022/06/11 04:10:56;;;;;;;6.58;5.90;;;;;;;14.54;80.20;100802.70;1732188;82;25569;-67
2022/06/11 04:13:25;;;;;;;5.53;5.03;;;;;;;14.60;80.09;100796.58;1732365;82;25475;-67
2022/06/11 04:15:53;;;;;;;8.50;5.58;;;;;;;14.69;79.83;100804.97;1732554;82;25684;-69
2022/06/11 04:18:36;;;;;;;5.45;4.80;;;;;;;14.75;79.79;100799.58;1732350;82;25653;-69
2022/06/11 04:21:10;;;;;;;5.53;4.83;;;;;;;14.84;79.87;100798.75;1732322;82;27927;-67
2022/06/11 04:23:38;;;;;;;6.70;5.05;;;;;;;14.90;79.70;100803.70;1732296;82;25580;-67
2022/06/11 04:26:10;;;;;;;6.72;4.72;;;;;;;14.98;79.97;100805.35;1732303;82;25698;-67
2022/06/11 04:28:37;;;;;;;4.97;3.92;;;;;;;15.05;79.43;100802.38;1732315;82;25618;-67
2022/06/11 04:31:07;;;;;;;4.08;3.77;;;;;;;15.12;78.98;100808.67;1732314;82;25435;-67
2022/06/11 04:33:34;;;;;;;5.37;4.10;;;;;;;15.20;79.21;100805.67;1732314;82;29090;-67
2022/06/11 04:36:01;;;;;;;5.12;4.08;;;;;;;15.28;78.76;100807.56;1732223;82;25412;-67
2022/06/11 04:38:27;;;;;;;4.97;4.20;;;;;;;15.35;78.48;100802.95;1732303;82;25422;-67
2022/06/11 04:40:54;;;;;;;4.85;4.22;;;;;;;15.41;78.48;100805.17;1732219;82;26592;-67
2022/06/11 04:43:22;;;;;;;5.55;3.85;;;;;;;15.48;78.04;100799.20;1732345;82;25407;-67
2022/06/11 04:45:49;;;;;;;5.15;4.53;;;;;;;15.55;77.81;100800.05;1732342;82;27465;-69
2022/06/11 04:48:16;;;;;;;6.70;3.95;;;;;;;15.61;77.89;100800.89;1732186;82;25485;-69
2022/06/11 04:50:42;;;;;;;4.50;3.87;;;;;;;15.73;77.98;100806.17;1732279;82;25579;-69
2022/06/11 04:53:09;;;;;;;4.30;3.50;;;;;;;15.82;78.14;100806.95;1732252;82;27815;-69
2022/06/11 04:55:35;;;;;;;3.55;3.25;;;;;;;15.91;78.14;100804.16;1731170;82;25772;-69
2022/06/11 04:58:03;;;;;;;5.25;3.33;;;;;;;15.98;77.16;100803.06;1726878;83;27297;-69
2022/06/11 05:00:32;;;;;;;3.08;2.77;;;;;;;16.07;77.42;100814.69;1726726;83;25580;-69
2022/06/11 05:03:00;;;;;;;3.95;2.58;;;;;;;16.15;76.71;100813.83;1726940;83;25637;-69
2022/06/11 05:05:27;;;;;;;3.00;2.70;;;;;;;16.22;76.34;100806.47;1726764;83;26254;-69
2022/06/11 05:07:53;;;;;;;3.00;2.52;;;;;;;16.30;75.96;100813.78;1726881;83;25590;-69
2022/06/11 05:10:22;;;;;;;2.70;2.50;;;;;;;16.39;75.84;100819.95;1726815;83;28153;-69
2022/06/11 05:12:49;;;;;;;2.70;2.50;;;;;;;16.49;75.56;100816.59;1726910;83;25645;-69
2022/06/11 05:15:15;;;;;;;3.27;2.60;;;;;;;16.57;74.78;100817.87;1726882;82;25462;-69
2022/06/11 05:17:41;;;;;;;2.17;2.02;;;;;;;16.65;74.88;100822.99;1726778;83;25796;-69
2022/06/11 05:20:10;;;;;;;3.02;2.22;;;;;;;16.74;74.08;100819.63;1726844;83;25448;-69
2022/06/11 05:22:38;;;;;;;3.25;2.67;;;;;;;16.82;74.09;100824.74;1726902;83;28111;-69
2022/06/11 05:25:06;;;;;;;3.92;2.35;;;;;;;16.93;73.95;100819.69;1726759;83;25670;-68
2022/06/11 05:27:33;;;;;;;1.95;1.77;;;;;;;17.04;73.43;100819.46;1726816;82;25484;-68
2022/06/11 05:30:06;;;;;;;4.53;2.40;;;;;;;17.15;73.41;100818.47;1726840;83;25718;-68
2022/06/11 05:32:37;;;;;;;2.77;2.55;;;;;;;17.29;73.65;100820.86;1726877;83;25463;-68
2022/06/11 05:35:08;;;;;;;4.12;2.20;;;;;;;17.44;73.20;100825.64;1727024;83;27360;-69
2022/06/11 05:37:35;;;;;;;2.52;2.25;;;;;;;17.59;72.40;100822.80;1726898;83;25420;-68
2022/06/11 05:40:03;;;;;;;3.27;2.92;;;;;;;17.76;72.06;100826.39;1727031;83;25459;-68
2022/06/11 05:42:30;;;;;;;3.17;1.72;;;;;;;17.91;71.61;100831.19;1726899;83;25725;-68
2022/06/11 05:44:56;;;;;;;3.30;2.27;;;;;;;18.08;71.48;100828.20;1727066;83;25415;-71
2022/06/11 05:47:26;;;;;;;3.83;1.85;;;;;;;18.29;71.52;100836.80;1727010;83;27391;-70
2022/06/11 05:49:57;;;;;;;4.10;1.80;;;;;;;18.48;70.70;100831.45;1726882;83;25771;-70
2022/06/11 05:52:32;;;;;;;6.87;2.35;;;;;;;18.65;70.01;100839.14;1727124;83;25604;-70
2022/06/11 05:54:59;;;;;;;3.60;2.00;;;;;;;18.82;69.39;100843.51;1696786;84;25706;-68
2022/06/11 05:57:27;;;;;;;5.22;2.02;;;;;;;18.99;69.32;100843.19;1669420;84;25452;-68
2022/06/11 06:00:02;;;;;;;2.80;2.10;;;;;;;19.19;69.40;100840.56;1717215;83;27329;-68
2022/06/11 06:02:29;;;;;;;3.05;1.90;;;;;;;19.38;68.66;100843.36;1669849;85;25561;-68
2022/06/11 06:04:56;;;;;;;3.83;2.90;;;;;;;19.53;67.94;100847.25;1669987;85;25417;-68
2022/06/11 06:07:23;;;;;;;2.90;2.10;;;;;;;19.70;67.68;100850.19;1669929;85;26505;-68
2022/06/11 06:09:49;;;;;;;2.95;2.00;;;;;;;19.84;67.02;100849.73;1669990;85;25478;-68
2022/06/11 06:12:17;;;;;;;5.62;5.12;;;;;;;19.96;65.75;100850.19;1717126;83;27308;-68
2022/06/11 06:14:44;;;;;;;4.17;2.72;;;;;;;20.09;66.12;100850.28;1669886;85;25317;-69
2022/06/11 06:17:10;;;;;;;3.87;2.35;;;;;;;20.23;64.99;100853.11;1670003;85;25431;-69
2022/06/11 06:19:36;;;;;;;2.65;1.85;;;;;;;20.37;64.64;100855.34;1717159;83;25634;-69
2022/06/11 06:22:04;;;;;;;2.50;2.30;;;;;;;20.52;64.48;100853.87;1670017;85;25506;-69
2022/06/11 06:24:33;;;;;;;6.65;2.55;;;;;;;20.67;63.75;100857.73;1665517;85;27334;-69
2022/06/11 06:27:00;;;;;;;2.75;2.47;;;;;;;20.85;63.75;100855.88;1670132;85;25676;-68
2022/06/11 06:29:27;;;;;;;3.95;2.30;;;;;;;21.02;63.28;100866.39;1669944;85;25426;-68
2022/06/11 06:31:53;;;;;;;4.40;2.12;;;;;;;21.18;62.77;100862.16;1669879;85;25691;-68
2022/06/11 06:34:19;;;;;;;2.17;1.90;;;;;;;21.35;62.12;100863.62;1669950;85;25383;-68
2022/06/11 06:36:45;;;;;;;2.25;2.00;;;;;;;21.50;61.76;100867.98;1669949;85;28133;-69
2022/06/11 06:39:11;;;;;;;2.25;2.00;;;;;;;21.71;61.78;100871.63;1669883;85;25394;-69
2022/06/11 06:41:37;;;;;;;2.40;2.00;;;;;;;21.89;61.01;100876.81;1669888;85;25590;-69
2022/06/11 06:44:04;;;;;;;2.00;1.80;;;;;;;22.12;60.61;100873.20;1669933;85;25634;-70
2022/06/11 06:46:30;;;;;;;4.37;1.90;;;;;;;22.30;59.57;100872.85;1669997;85;25508;-67
2022/06/11 06:48:56;;;;;;;2.00;1.70;;;;;;;22.42;59.04;100862.77;1669954;85;27314;-67
2022/06/11 06:51:22;;;;;;;2.30;2.10;;;;;;;22.48;57.99;100868.16;1669930;85;25733;-67
2022/06/11 06:53:49;;;;;;;2.30;2.10;;;;;;;22.56;58.14;100869.23;1669937;85;25443;-67
2022/06/11 06:56:16;;;;;;;3.47;1.95;;;;;;;22.73;57.92;100867.84;1720927;82;25592;-66
2022/06/11 06:58:42;;;;;;;3.00;1.87;;;;;;;22.85;57.36;100872.30;1737669;82;25673;-65
2022/06/11 07:01:09;;;;;;;3.30;1.80;;;;;;;22.82;56.35;100883.30;1737614;82;27516;-65
2022/06/11 07:03:35;;;;;;;2.05;1.85;;;;;;;22.74;56.30;100875.52;1737480;82;25581;-65
2022/06/11 07:06:04;;;;;;;3.45;1.90;;;;;;;22.73;56.14;100883.57;1737431;82;25460;-67
2022/06/11 07:08:30;;;;;;;2.52;2.33;;;;;;;22.70;55.63;100892.03;1737350;82;26385;-67
2022/06/11 07:10:57;;;;;;;4.47;2.37;;;;;;;22.74;55.79;100890.69;1737423;81;25394;-67
2022/06/11 07:13:23;;;;;;;3.42;2.00;;;;;;;22.73;55.56;100891.84;1737339;82;27548;-67
2022/06/11 07:15:53;;;;;;;2.30;2.10;;;;;;;22.71;55.71;100889.48;1737340;82;25591;-66
2022/06/11 07:18:31;;;;;;;2.25;2.05;;;;;;;22.71;55.42;100892.25;1737252;82;25609;-67
2022/06/11 07:21:01;;;;;;;4.25;2.55;;;;;;;22.64;55.06;100888.02;1737321;82;25715;-66
2022/06/11 07:23:38;;;;;;;2.67;2.40;;;;;;;22.66;55.74;100888.45;1737282;82;25644;-67
2022/06/11 07:26:09;;;;;;;2.60;2.12;;;;;;;22.88;55.78;100891.41;1736324;82;28023;-68
2022/06/11 07:28:44;;;;;;;3.37;2.10;;;;;;;22.91;54.70;100894.80;1737273;82;25395;-67
2022/06/11 07:31:10;;;;;;;3.08;2.10;;;;;;;22.85;54.23;100890.22;1737382;82;25484;-67
2022/06/11 07:33:36;;;;;;;2.40;2.20;;;;;;;22.98;54.79;100894.86;1737288;82;25586;-67
2022/06/11 07:36:04;;;;;;;3.20;1.77;;;;;;;23.25;54.70;100894.75;1737386;82;25639;-66
2022/06/11 07:38:30;;;;;;;5.17;2.30;;;;;;;23.50;54.09;100888.84;1737495;82;27562;-67
2022/06/11 07:40:57;;;;;;;2.67;1.90;;;;;;;23.83;53.79;100891.84;1737489;82;25550;-67
2022/06/11 07:43:23;;;;;;;4.22;2.05;;;;;;;24.23;53.55;100891.48;1737554;82;25423;-66
2022/06/11 07:45:49;;;;;;;4.00;2.00;;;;;;;24.63;52.91;100891.64;1731177;81;26077;-67
2022/06/11 07:48:15;;;;;;;4.10;2.00;;;;;;;24.95;52.41;100884.80;1706297;82;25732;-66
2022/06/11 07:50:49;;;;;;;1.70;1.60;;;;;;;25.14;51.25;100889.16;1734311;82;27605;-67
2022/06/11 07:53:17;;;;;;;2.75;2.00;;;;;;;25.23;50.15;100888.77;1736660;82;25693;-68
2022/06/11 07:55:47;;;;;;;2.65;1.98;;;;;;;25.87;49.38;100892.88;1703865;84;25822;-65
2022/06/11 07:58:17;;;;;;;4.58;3.50;;;;;;;25.87;49.38;100892.88;1727840;82;25897;-65
2022/06/11 08:00:49;;;;;;;3.98;2.15;;;;;;;26.04;48.77;100887.72;1695148;84;25545;-65
2022/06/11 08:03:16;;;;;;;4.70;2.60;;;;;;;26.21;47.97;100885.47;1713088;82;28128;-65
2022/06/11 08:05:43;;;;;;;2.50;2.22;;;;;;;26.21;46.69;100888.24;1709640;82;25698;-64
2022/06/11 08:08:11;;;;;;;3.27;1.80;;;;;;;26.12;46.74;100894.02;1686097;83;25672;-65
2022/06/11 08:10:41;;;;;;;4.35;1.85;;;;;;;25.96;45.98;100890.31;1680683;84;26418;-65
2022/06/11 08:13:09;;;;;;;7.53;1.95;;;;;;;25.98;47.03;100885.94;1668807;86;25740;-64
2022/06/11 08:15:39;;;;;;;2.30;1.32;;;;;;;26.23;46.76;100876.76;1668795;86;27247;-66
2022/06/11 08:18:06;;;;;;;3.55;1.50;;;;;;;26.50;46.04;100877.63;1668440;86;25817;-66
2022/06/11 08:20:35;;;;;;;2.08;1.92;;;;;;;26.78;45.65;100879.46;1668472;86;25427;-66
2022/06/11 08:23:02;;;;;;;2.27;1.70;;;;;;;27.10;45.38;100875.67;1668580;86;25636;-65
2022/06/11 08:25:29;;;;;;;2.27;1.22;;;;;;;27.38;44.37;100878.24;1668542;86;25760;-66
2022/06/11 08:27:56;;;;;;;1.82;1.60;;;;;;;27.49;43.93;100876.74;1668446;86;27313;-66
2022/06/11 08:30:27;;;;;;;2.08;1.52;;;;;;;27.39;43.40;100881.19;1668308;85;25718;-65
2022/06/11 08:32:53;;;;;;;2.42;1.55;;;;;;;27.19;43.10;100885.13;1668527;86;25753;-65
2022/06/11 08:35:23;;;;;;;2.72;1.80;;;;;;;27.21;42.74;100874.39;1668334;86;25951;-65
2022/06/11 08:37:51;;;;;;;2.75;1.60;;;;;;;27.05;42.16;100881.66;1668396;85;25573;-65
2022/06/11 08:40:31;;;;;;;2.42;1.50;;;;;;;26.97;43.17;100883.69;1668365;86;27491;-66
2022/06/11 08:43:20;;;;;;;2.12;1.77;;;;;;;27.28;43.34;100867.20;1668232;86;25742;-65
2022/06/11 08:46:03;;;;;;;2.80;1.87;;;;;;;27.63;42.53;100870.86;1661505;86;25668;-66
2022/06/11 08:49:07;;;;;;;2.87;1.62;;;;;;;27.81;42.04;100868.69;1672873;85;26278;-65
2022/06/11 08:51:41;;;;;;;2.33;2.10;;;;;;;27.58;41.38;100865.14;1672795;85;25686;-66
2022/06/11 08:54:15;;;;;;;2.62;1.60;;;;;;;27.65;42.02;100860.92;1672272;85;26971;-64
2022/06/11 08:56:52;;;;;;;2.95;1.80;;;;;;;27.89;41.93;100863.24;1672581;84;25762;-65
2022/06/11 09:00:02;;;;;;;1.98;1.70;;;;;;;28.10;41.28;100863.61;1672869;85;25569;-65
2022/06/11 09:03:23;;;;;;;3.30;1.55;;;;;;;28.34;41.02;100860.92;1672785;85;25679;-65
2022/06/11 09:06:11;;;;;;;2.65;1.50;;;;;;;28.72;40.47;100848.89;1672960;85;25692;-65
2022/06/11 09:09:00;;;;;;;2.42;2.22;;;;;;;28.94;39.87;100854.91;1673117;85;27514;-65
2022/06/11 09:12:14;;;;;;;5.05;2.05;;;;;;;29.06;39.21;100849.55;1672611;85;25599;-65
2022/06/11 09:15:07;;;;;;;6.10;2.05;;;;;;;29.16;39.43;100847.80;1607350;88;25697;-66
2022/06/11 09:18:16;;;;;;;1.98;1.50;;;;;;;29.35;39.21;100844.11;1607352;89;25707;-66
2022/06/11 09:21:10;;;;;;;2.20;1.42;;;;;;;29.61;37.67;100843.23;1607473;89;25858;-65
2022/06/11 09:23:54;;;;;;;2.47;1.60;;;;;;;29.79;37.68;100845.68;1607079;89;28240;-65
2022/06/11 09:26:32;;;;;;;4.20;1.85;;;;;;;30.15;37.81;100845.56;1607252;89;25662;-65
2022/06/11 09:29:15;;;;;;;2.45;1.57;;;;;;;30.61;37.23;100833.22;1607283;89;25791;-65
2022/06/11 09:31:49;;;;;;;2.15;1.40;;;;;;;30.81;36.71;100830.36;1607232;89;25703;-66
2022/06/11 09:34:44;;;;;;;1.67;1.35;;;;;;;31.02;36.38;100823.47;1607196;89;25866;-66
2022/06/11 09:37:17;;;;;;;5.50;2.12;;;;;;;31.19;35.68;100820.05;1607240;89;27354;-66
2022/06/11 09:39:58;;;;;;;2.45;1.60;;;;;;;31.29;35.80;100816.19;1607333;89;25847;-67
2022/06/11 09:42:53;;;;;;;4.83;1.32;;;;;;;31.15;35.13;100817.97;1606606;89;25762;-65
2022/06/11 09:49:13;;;;;;;2.90;1.60;;;;;;;31.08;34.47;100818.94;1602547;89;25564;-66
2022/06/11 09:52:00;;;;;;;2.22;1.20;;;;;;;31.12;34.08;100817.45;1669909;84;28096;-64
2022/06/11 09:54:38;;;;;;;4.12;1.30;;;;;;;31.35;34.07;100813.66;1686193;85;25750;-65
2022/06/11 09:57:36;;;;;;;2.95;0.93;;;;;;;31.53;33.74;100820.17;1731451;81;25661;-66
2022/06/11 10:00:25;;;;;;;1.20;1.10;;;;;;;31.55;33.36;100819.92;1731446;82;25734;-68
2022/06/11 10:03:35;;;;;;;2.77;1.10;;;;;;;31.69;32.52;100817.92;1731578;82;25759;-66
2022/06/11 10:06:20;;;;;;;3.40;1.32;;;;;;;31.85;32.51;100820.66;1701889;84;33836;-65
2022/06/11 10:08:59;;;;;;;1.72;1.35;;;;;;;32.08;32.31;100818.82;1701745;84;25793;-65
2022/06/11 10:11:34;;;;;;;2.25;1.20;;;;;;;32.33;32.45;100818.06;1702100;84;25804;-65
2022/06/11 10:14:30;;;;;;;2.70;1.85;;;;;;;32.36;30.81;100825.58;1701205;83;25682;-66
2022/06/11 10:17:34;;;;;;;2.15;1.10;;;;;;;32.22;30.55;100822.60;1702100;84;25714;-67
2022/06/11 10:20:27;;;;;;;1.20;1.00;;;;;;;32.22;31.11;100817.63;1702034;84;27546;-67
2022/06/11 10:23:04;;;;;;;2.35;0.93;;;;;;;32.33;30.70;100813.24;1701973;84;25693;-65
2022/06/11 10:25:51;;;;;;;4.03;1.05;;;;;;;32.41;29.82;100813.05;1730105;81;25602;-66
2022/06/11 10:28:25;;;;;;;3.50;1.40;;;;;;;32.38;30.44;100816.88;1728173;83;25667;-66
2022/06/11 10:31:16;;;;;;;3.45;2.52;;;;;;;32.62;30.06;100817.97;1732872;81;25678;-65
2022/06/11 10:33:59;;;;;;;8.68;6.65;;;;;;;32.53;29.69;100817.22;1732895;82;27326;-66
2022/06/11 10:36:59;;;;;;;2.42;1.40;;;;;;;32.55;30.00;100811.95;1732788;82;25806;-67
2022/06/11 10:39:55;;;;;;;1.20;1.07;;;;;;;32.69;29.69;100813.56;1733034;82;25748;-67
2022/06/11 10:42:33;;;;;;;1.72;1.10;;;;;;;32.72;29.55;100802.83;1751371;81;25718;-66
2022/06/11 10:45:00;;;;;;;5.87;1.30;;;;;;;32.65;28.54;100804.47;1769533;81;25755;-65
2022/06/11 10:47:41;;;;;;;2.72;2.33;;;;;;;32.69;29.10;100793.16;1765588;79;27296;-66
2022/06/11 10:50:13;;;;;;;4.90;2.45;;;;;;;32.69;29.10;100793.16;1774872;80;25569;-66
2022/06/11 10:53:06;;;;;;;1.92;1.32;;;;;;;33.04;28.32;100798.80;1777372;80;25657;-65
2022/06/11 10:55:58;;;;;;;0.98;0.90;;;;;;;33.04;28.32;100798.80;1755396;80;25678;-65
2022/06/11 10:58:53;;;;;;;1.20;1.10;;;;;;;33.10;28.46;100787.97;1746931;81;25408;-66
2022/06/11 11:01:28;;;;;;;2.45;1.10;;;;;;;33.10;28.46;100787.97;1657073;86;28694;-68
2022/06/11 11:04:18;;;;;;;2.62;1.12;;;;;;;33.33;28.46;100785.99;1653082;86;25793;-65
2022/06/11 11:06:44;;;;;;;2.67;0.98;;;;;;;33.44;28.11;100781.39;1656812;86;25711;-65
2022/06/11 11:09:23;;;;;;;1.70;1.17;;;;;;;33.31;27.81;100787.84;1656877;86;26298;-65
2022/06/11 11:11:56;;;;;;;3.00;1.30;;;;;;;33.21;28.53;100786.20;1656001;86;25752;-65
2022/06/11 11:14:40;;;;;;;1.52;1.20;;;;;;;33.21;28.53;100786.20;1657099;86;27439;-65
2022/06/11 11:17:20;;;;;;;1.50;1.17;;;;;;;33.27;28.34;100780.20;1657086;86;25779;-66
2022/06/11 11:22:42;;;;;;;3.65;1.60;;;;;;;33.15;27.48;100776.03;1657109;86;25785;-67
2022/06/11 11:25:18;;;;;;;2.80;1.30;;;;;;;33.11;27.99;100774.10;1633683;86;25744;-65
2022/06/11 11:27:47;;;;;;;4.95;2.20;;;;;;;33.20;28.22;100771.25;1657231;86;27923;-65
2022/06/11 11:30:19;;;;;;;1.65;1.55;;;;;;;33.34;28.35;100771.35;1656964;86;25742;-65
2022/06/11 11:32:48;;;;;;;5.78;1.70;;;;;;;33.34;28.35;100771.35;1657221;86;25737;-65
2022/06/11 11:35:31;;;;;;;4.20;1.75;;;;;;;33.42;28.39;100764.25;1657205;86;25768;-65
2022/06/11 11:38:15;;;;;;;3.15;1.47;;;;;;;33.59;28.20;100761.40;1679169;83;25753;-65
2022/06/11 11:41:00;;;;;;;6.97;1.20;;;;;;;33.72;27.87;100762.77;1714102;83;27319;-66
2022/06/11 11:43:38;;;;;;;2.67;1.30;;;;;;;33.76;27.61;100764.80;1714041;83;25616;-65
2022/06/11 11:46:23;;;;;;;1.45;1.30;;;;;;;33.84;27.77;100758.31;1713412;83;25553;-65
2022/06/11 11:48:54;;;;;;;1.20;1.07;;;;;;;33.89;27.07;100761.92;1714101;83;25732;-67
2022/06/11 11:51:28;;;;;;;1.17;1.07;;;;;;;33.75;26.86;100754.84;1714072;83;25714;-66
2022/06/11 11:54:02;;;;;;;2.05;1.30;;;;;;;33.79;27.04;100751.27;1714078;83;27377;-68
2022/06/11 11:56:42;;;;;;;1.52;1.20;;;;;;;33.84;26.52;100759.08;1714206;83;25420;-69
2022/06/11 11:59:26;;;;;;;3.72;1.20;;;;;;;33.89;26.26;100761.92;1715383;82;26284;-66
2022/06/11 12:01:57;;;;;;;1.15;1.02;;;;;;;33.90;25.71;100757.08;1734498;82;25616;-66
2022/06/11 12:04:40;;;;;;;2.20;0.70;;;;;;;33.72;25.42;100762.77;1730840;82;25667;-66
2022/06/11 12:07:11;;;;;;;1.65;1.10;;;;;;;33.66;25.35;100763.16;1732150;82;28013;-66